Time;durP1;ratioP1;P1;durP2;ratioP2;P2;SDS_P1;SDS_P2;PMS_P1;PMS_P2;Temp;Humidity;BMP_temperature;BMP_pressure;BME280_temperature;BME280_humidity;BME280_pressure;Samples;Min_cycle;Max_cycle;Signal;HPM_P1;HPM_P2
2022/12/13 00:01:45;;;;;;;50.03;34.13;;;-4.10;99.90;;;;;;5093978;28;20456;-75
2022/12/13 00:04:15;;;;;;;50.07;35.40;;;-4.10;99.90;;;;;;5092325;28;20456;-75
2022/12/13 00:06:44;;;;;;;47.30;34.90;;;-4.10;99.90;;;;;;5093692;28;20432;-75
2022/12/13 00:09:14;;;;;;;46.60;32.80;;;-4.10;99.90;;;;;;5093637;28;20428;-75
2022/12/13 00:11:42;;;;;;;47.30;35.50;;;-4.20;99.90;;;;;;5093521;28;20437;-75
2022/12/13 00:14:12;;;;;;;48.30;34.60;;;-4.20;99.90;;;;;;5094184;28;20514;-75
2022/12/13 00:16:41;;;;;;;46.57;34.70;;;-4.20;99.90;;;;;;5094090;28;20524;-75
2022/12/13 00:19:09;;;;;;;54.00;37.80;;;-4.20;99.90;;;;;;5096661;28;20474;-75
2022/12/13 00:21:39;;;;;;;51.93;38.33;;;-4.20;99.90;;;;;;5096760;28;20871;-75
2022/12/13 00:24:08;;;;;;;51.47;36.73;;;-4.20;99.90;;;;;;5093097;28;20471;-75
2022/12/13 00:26:36;;;;;;;49.63;37.20;;;-4.20;99.90;;;;;;5095470;28;20436;-75
2022/12/13 00:29:06;;;;;;;52.30;37.63;;;-4.20;99.90;;;;;;5093659;28;20948;-75
2022/12/13 00:31:35;;;;;;;48.20;36.97;;;-4.30;99.90;;;;;;5095351;28;20859;-75
2022/12/13 00:34:23;;;;;;;50.57;35.13;;;-4.30;99.90;;;;;;5094670;28;20456;-75
2022/12/13 00:36:53;;;;;;;46.10;33.90;;;-4.30;99.90;;;;;;5092994;28;20499;-75
2022/12/13 00:39:21;;;;;;;51.47;35.70;;;-4.30;99.90;;;;;;5098057;28;20439;-75
2022/12/13 00:41:50;;;;;;;46.50;37.03;;;-4.30;99.90;;;;;;5098435;28;20467;-75
2022/12/13 00:44:18;;;;;;;51.93;35.63;;;-4.30;99.90;;;;;;5097928;28;20455;-75
2022/12/13 00:46:47;;;;;;;48.37;36.30;;;-4.30;99.90;;;;;;5097717;28;20440;-75
2022/12/13 00:49:16;;;;;;;46.60;34.70;;;-4.30;99.90;;;;;;5096364;28;20544;-75
2022/12/13 00:51:44;;;;;;;43.57;34.07;;;-4.40;99.90;;;;;;5097436;28;20436;-75
2022/12/13 00:54:13;;;;;;;50.07;35.10;;;-4.40;99.90;;;;;;5097506;28;20463;-75
2022/12/13 00:56:41;;;;;;;48.47;33.23;;;-4.40;99.90;;;;;;5097517;28;20877;-75
2022/12/13 00:59:13;;;;;;;47.70;36.13;;;-4.40;99.90;;;;;;5097016;28;20428;-75
2022/12/13 01:01:41;;;;;;;49.13;35.30;;;-4.40;99.90;;;;;;5097405;28;20906;-75
2022/12/13 01:04:10;;;;;;;52.03;37.83;;;-4.40;99.90;;;;;;5096943;28;20478;-75
2022/12/13 01:06:40;;;;;;;48.47;36.33;;;-4.40;99.90;;;;;;5097046;28;20436;-75
2022/12/13 01:09:14;;;;;;;48.83;36.60;;;-4.40;99.90;;;;;;5095672;28;20451;-75
2022/12/13 01:11:44;;;;;;;52.30;36.30;;;-4.50;99.90;;;;;;5095661;28;20535;-75
2022/12/13 01:14:12;;;;;;;48.93;36.47;;;-4.50;99.90;;;;;;5097075;28;20460;-75
2022/12/13 01:16:40;;;;;;;47.63;35.60;;;-4.50;99.90;;;;;;5097161;28;20441;-75
2022/12/13 01:19:08;;;;;;;50.80;37.40;;;-4.50;99.90;;;;;;5097123;28;20475;-75
2022/12/13 01:21:38;;;;;;;51.47;36.30;;;-4.50;99.90;;;;;;5097684;28;20495;-75
2022/12/13 01:24:06;;;;;;;50.00;36.70;;;-4.50;99.90;;;;;;5096919;28;20459;-75
2022/12/13 01:26:35;;;;;;;49.47;37.03;;;-4.50;99.90;;;;;;5098732;28;20953;-75
2022/12/13 01:29:04;;;;;;;49.63;36.23;;;-4.50;99.90;;;;;;5099127;28;20439;-75
2022/12/13 01:31:33;;;;;;;51.43;35.70;;;-4.50;99.90;;;;;;5097158;28;20444;-75
2022/12/13 01:34:09;;;;;;;44.90;35.10;;;-4.50;99.90;;;;;;5097422;28;20457;-75
2022/12/13 01:36:38;;;;;;;51.73;38.03;;;-4.50;99.90;;;;;;5096953;28;20425;-75
2022/12/13 01:39:06;;;;;;;53.70;38.57;;;-4.50;99.90;;;;;;5096513;28;20443;-75
2022/12/13 01:41:43;;;;;;;51.93;36.47;;;-4.50;99.90;;;;;;5095134;28;20555;-75
2022/12/13 01:44:44;;;;;;;55.27;38.27;;;-4.50;99.90;;;;;;5096380;28;21121;-75
2022/12/13 01:47:16;;;;;;;53.30;38.40;;;-4.40;99.90;;;;;;5087929;28;20433;-75
2022/12/13 01:49:44;;;;;;;54.07;38.53;;;-4.50;99.90;;;;;;5093558;28;20953;-75
2022/12/13 01:52:14;;;;;;;51.33;39.50;;;-4.50;99.90;;;;;;5095159;28;20494;-75
2022/12/13 01:54:46;;;;;;;51.73;37.50;;;-4.50;99.90;;;;;;5096133;28;20459;-75
2022/12/13 01:57:15;;;;;;;52.43;38.27;;;-4.50;99.90;;;;;;5096278;28;20428;-75
2022/12/13 01:59:44;;;;;;;49.90;36.70;;;-4.50;99.90;;;;;;5094697;28;20513;-75
2022/12/13 02:02:15;;;;;;;49.63;37.37;;;-4.40;99.90;;;;;;5094705;28;20464;-75
2022/12/13 02:04:50;;;;;;;51.13;37.90;;;-4.40;99.90;;;;;;5096159;28;20486;-75
2022/12/13 02:07:21;;;;;;;49.23;37.10;;;-4.40;99.90;;;;;;5094625;28;20443;-75
2022/12/13 02:09:52;;;;;;;50.47;36.87;;;-4.40;99.90;;;;;;5094696;28;20464;-75
2022/12/13 02:12:24;;;;;;;54.97;39.27;;;-4.30;99.90;;;;;;5098070;28;20448;-75
2022/12/13 02:14:59;;;;;;;52.27;38.27;;;-4.30;99.90;;;;;;5095703;28;20458;-75
2022/12/13 02:17:38;;;;;;;45.43;35.93;;;-4.30;99.90;;;;;;5096104;28;20894;-75
2022/12/13 02:20:38;;;;;;;48.53;36.77;;;-4.30;99.90;;;;;;5094428;28;20460;-75
2022/12/13 02:23:32;;;;;;;54.97;39.13;;;-4.30;99.90;;;;;;5094423;28;20992;-75
2022/12/13 02:26:18;;;;;;;49.03;36.00;;;-4.30;99.90;;;;;;5095925;28;20430;-75
2022/12/13 02:29:07;;;;;;;44.73;35.17;;;-4.20;99.90;;;;;;5095431;28;20428;-75
2022/12/13 02:31:43;;;;;;;47.97;35.53;;;-4.20;99.90;;;;;;5094117;28;20441;-75
2022/12/13 02:34:18;;;;;;;49.00;35.20;;;-4.20;99.90;;;;;;5095542;28;20457;-75
2022/12/13 02:37:01;;;;;;;48.53;36.33;;;-4.20;99.90;;;;;;5096470;28;20824;-75
2022/12/13 02:39:34;;;;;;;47.90;35.07;;;-4.20;99.90;;;;;;5094036;28;20444;-75
2022/12/13 02:42:07;;;;;;;48.93;34.73;;;-4.20;99.90;;;;;;5095416;28;20456;-75
2022/12/13 02:44:55;;;;;;;46.63;33.53;;;-4.20;99.90;;;;;;5093939;28;20468;-75
2022/12/13 02:47:29;;;;;;;51.20;35.87;;;-4.30;99.90;;;;;;5093957;28;20451;-75
2022/12/13 02:49:59;;;;;;;51.40;36.60;;;-4.30;99.90;;;;;;5095692;28;20417;-75
2022/12/13 02:52:31;;;;;;;43.50;34.97;;;-4.30;99.90;;;;;;5095342;28;20419;-75
2022/12/13 02:54:59;;;;;;;53.43;37.43;;;-4.30;99.90;;;;;;5095172;28;20463;-75
2022/12/13 02:57:32;;;;;;;57.23;40.17;;;-4.30;99.90;;;;;;5095054;28;20488;-75
2022/12/13 03:00:04;;;;;;;48.07;36.33;;;-4.30;99.90;;;;;;5094329;28;20448;-75
2022/12/13 03:02:50;;;;;;;51.07;37.53;;;-4.30;99.90;;;;;;5097699;28;20464;-75
2022/12/13 03:08:22;;;;;;;45.57;35.10;;;-4.30;99.90;;;;;;5094981;28;20432;-75
2022/12/13 03:11:02;;;;;;;45.70;34.90;;;-4.30;99.90;;;;;;5094950;28;20533;-75
2022/12/13 03:13:43;;;;;;;49.53;36.73;;;-4.30;99.90;;;;;;5094562;28;20417;-75
2022/12/13 03:16:21;;;;;;;45.70;35.20;;;-4.20;99.90;;;;;;5094552;28;20453;-75
2022/12/13 03:18:53;;;;;;;46.83;35.27;;;-4.20;99.90;;;;;;5094762;28;20838;-75
2022/12/13 03:21:26;;;;;;;49.23;34.47;;;-4.20;99.90;;;;;;5094829;28;20506;-75
2022/12/13 03:23:54;;;;;;;50.73;38.17;;;-4.20;99.90;;;;;;5092923;28;21005;-75
2022/12/13 03:26:26;;;;;;;47.53;38.63;;;-4.20;99.90;;;;;;5094632;28;20432;-75
2022/12/13 03:28:54;;;;;;;51.17;36.40;;;-4.20;99.90;;;;;;5094615;28;20421;-75
2022/12/13 03:31:23;;;;;;;45.97;34.63;;;-4.20;99.90;;;;;;5093109;28;20509;-75
2022/12/13 03:33:52;;;;;;;53.10;36.17;;;-4.20;99.90;;;;;;5094208;28;21024;-75
2022/12/13 03:36:21;;;;;;;44.83;33.43;;;-4.20;99.90;;;;;;5094457;28;20431;-75
2022/12/13 03:38:54;;;;;;;45.80;34.63;;;-4.20;99.90;;;;;;5092865;28;20447;-75
2022/12/13 03:41:30;;;;;;;48.23;36.77;;;-4.20;99.90;;;;;;5092806;28;20501;-75
2022/12/13 03:43:58;;;;;;;42.63;34.20;;;-4.20;99.90;;;;;;5094111;28;20820;-75
2022/12/13 03:46:26;;;;;;;43.17;32.80;;;-4.20;99.90;;;;;;5094165;28;20437;-75
2022/12/13 03:48:56;;;;;;;45.43;35.17;;;-4.20;99.90;;;;;;5092663;28;20941;-75
2022/12/13 03:51:24;;;;;;;51.33;36.10;;;-4.20;99.90;;;;;;5095496;28;21014;-75
2022/12/13 03:53:52;;;;;;;44.77;34.53;;;-4.20;99.90;;;;;;5092546;28;20495;-75
2022/12/13 03:56:20;;;;;;;46.57;33.90;;;-4.20;99.90;;;;;;5092510;28;20444;-75
2022/12/13 03:58:48;;;;;;;44.60;34.93;;;-4.20;99.90;;;;;;5092516;28;20518;-75
2022/12/13 04:01:17;;;;;;;46.97;35.23;;;-4.20;99.90;;;;;;5094032;28;20452;-75
2022/12/13 04:03:46;;;;;;;47.83;34.73;;;-4.30;99.90;;;;;;5093555;28;20503;-75
2022/12/13 04:06:17;;;;;;;47.37;34.87;;;-4.20;99.90;;;;;;5092488;28;20957;-75
2022/12/13 04:08:50;;;;;;;42.87;33.13;;;-4.30;99.90;;;;;;5093655;28;20427;-75
2022/12/13 04:14:10;;;;;;;46.23;33.90;;;-4.30;99.90;;;;;;5092251;28;20989;-75
2022/12/13 04:16:39;;;;;;;44.33;33.80;;;-4.30;99.90;;;;;;5092311;28;20437;-75
2022/12/13 04:19:07;;;;;;;62.00;40.70;;;-4.30;99.90;;;;;;5093465;28;20444;-75
2022/12/13 04:21:36;;;;;;;48.33;37.00;;;-4.30;99.90;;;;;;5093443;28;20988;-75
2022/12/13 04:24:05;;;;;;;50.67;36.40;;;-4.30;99.90;;;;;;5093847;28;20480;-75
2022/12/13 04:26:33;;;;;;;46.93;34.77;;;-4.30;99.90;;;;;;5092198;28;20441;-75
2022/12/13 04:29:01;;;;;;;47.97;35.93;;;-4.30;99.90;;;;;;5092140;28;20565;-75
2022/12/13 04:31:29;;;;;;;46.70;33.90;;;-4.20;99.90;;;;;;5092167;28;20534;-75
2022/12/13 04:33:57;;;;;;;47.87;34.77;;;-4.20;99.90;;;;;;5093279;28;20454;-75
2022/12/13 04:36:25;;;;;;;48.03;36.10;;;-4.20;99.90;;;;;;5093721;28;20442;-75
2022/12/13 04:39:01;;;;;;;48.27;34.93;;;-4.10;99.90;;;;;;5093671;28;20789;-75
2022/12/13 04:41:34;;;;;;;48.63;36.30;;;-4.10;99.90;;;;;;5095949;28;20451;-75
2022/12/13 04:44:04;;;;;;;50.40;36.17;;;-4.10;99.90;;;;;;5093670;28;20486;-75
2022/12/13 04:46:32;;;;;;;46.00;34.70;;;-4.10;99.90;;;;;;5093363;28;20482;-75
2022/12/13 04:49:00;;;;;;;47.90;35.60;;;-4.00;99.90;;;;;;5093540;28;20433;-75
2022/12/13 04:51:28;;;;;;;49.23;34.30;;;-4.00;99.90;;;;;;5093215;28;20837;-75
2022/12/13 04:53:57;;;;;;;49.67;35.83;;;-4.00;99.90;;;;;;5094021;28;20516;-75
2022/12/13 04:56:46;;;;;;;47.27;34.40;;;-4.00;99.90;;;;;;5093422;28;20498;-75
2022/12/13 04:59:14;;;;;;;44.40;34.23;;;-4.00;99.90;;;;;;5093219;28;20478;-75
2022/12/13 05:01:42;;;;;;;44.13;33.03;;;-3.90;99.90;;;;;;5091820;28;20486;-75
2022/12/13 05:04:10;;;;;;;41.57;29.40;;;-3.90;99.90;;;;;;5093002;28;20489;-75
2022/12/13 05:06:39;;;;;;;50.60;33.60;;;-3.80;99.90;;;;;;5092997;28;20443;-75
2022/12/13 05:09:07;;;;;;;47.30;33.23;;;-3.80;99.90;;;;;;5093322;28;20458;-75
2022/12/13 05:11:38;;;;;;;46.93;33.50;;;-3.80;99.90;;;;;;5091842;28;20428;-75
2022/12/13 05:14:16;;;;;;;50.10;35.97;;;-3.80;99.90;;;;;;5091737;28;20513;-75
2022/12/13 05:16:50;;;;;;;49.20;34.27;;;-3.80;99.90;;;;;;5093052;28;20473;-75
2022/12/13 05:19:19;;;;;;;50.10;34.67;;;-3.80;99.90;;;;;;5091588;28;20454;-75
2022/12/13 05:21:48;;;;;;;45.00;35.67;;;-3.70;99.90;;;;;;5093104;28;20784;-75
2022/12/13 05:24:18;;;;;;;47.83;34.77;;;-3.70;99.90;;;;;;5094123;28;20477;-75
2022/12/13 05:26:46;;;;;;;44.27;35.03;;;-3.70;99.90;;;;;;5096890;28;20448;-75
2022/12/13 05:29:16;;;;;;;48.57;35.07;;;-3.70;99.90;;;;;;5096597;28;20476;-75
2022/12/13 05:31:44;;;;;;;44.47;33.63;;;-3.70;99.90;;;;;;5101261;28;20450;-75
2022/12/13 05:34:12;;;;;;;46.23;35.03;;;-3.60;99.90;;;;;;5099797;28;20465;-75
2022/12/13 05:36:40;;;;;;;48.47;35.53;;;-3.60;99.90;;;;;;5098783;28;20439;-75
2022/12/13 05:39:09;;;;;;;47.03;34.87;;;-3.60;99.90;;;;;;5095995;28;20463;-75
2022/12/13 05:41:58;;;;;;;48.40;35.73;;;-3.60;99.90;;;;;;5095564;28;20498;-76
2022/12/13 05:44:31;;;;;;;46.17;34.57;;;-3.50;99.90;;;;;;5096792;28;20992;-75
2022/12/13 05:47:00;;;;;;;46.77;35.27;;;-3.50;99.90;;;;;;5096814;28;20436;-76
2022/12/13 05:49:30;;;;;;;51.57;36.97;;;-3.50;99.90;;;;;;5096784;28;20512;-76
2022/12/13 05:51:59;;;;;;;48.53;34.47;;;-3.50;99.90;;;;;;5096591;28;20451;-76
2022/12/13 05:54:27;;;;;;;51.03;38.50;;;-3.50;99.90;;;;;;5096623;28;20465;-76
2022/12/13 05:56:55;;;;;;;46.43;37.40;;;-3.40;99.90;;;;;;5095077;28;20813;-76
2022/12/13 05:59:23;;;;;;;49.13;36.10;;;-3.40;99.90;;;;;;5096502;28;20456;-76
2022/12/13 06:01:52;;;;;;;47.03;35.57;;;-3.40;99.90;;;;;;5095002;28;20457;-76
2022/12/13 06:04:21;;;;;;;50.40;38.00;;;-3.40;99.90;;;;;;5094983;28;20483;-75
2022/12/13 06:06:50;;;;;;;50.00;36.60;;;-3.30;99.90;;;;;;5096232;28;20789;-75
2022/12/13 06:09:18;;;;;;;54.00;38.20;;;-3.30;99.90;;;;;;5096396;28;20500;-76
2022/12/13 06:11:47;;;;;;;50.80;37.70;;;-3.30;99.90;;;;;;5094819;28;20448;-76
2022/12/13 06:14:15;;;;;;;48.40;37.03;;;-3.30;99.90;;;;;;5094676;28;20522;-76
2022/12/13 06:16:52;;;;;;;53.30;36.07;;;-3.30;99.90;;;;;;5095869;28;20420;-76
2022/12/13 06:19:21;;;;;;;60.63;39.13;;;-3.20;99.90;;;;;;5096148;28;20424;-76
2022/12/13 06:21:49;;;;;;;61.40;40.33;;;-3.20;99.90;;;;;;5106449;28;20536;-75
2022/12/13 06:24:19;;;;;;;57.87;38.87;;;-3.20;99.90;;;;;;5114569;28;20472;-75
2022/12/13 06:26:48;;;;;;;61.40;41.80;;;-3.20;99.90;;;;;;5114709;28;20482;-75
2022/12/13 06:29:18;;;;;;;68.93;42.43;;;-3.20;99.90;;;;;;5114659;28;20443;-75
2022/12/13 06:31:59;;;;;;;64.93;41.53;;;-3.20;99.90;;;;;;5116255;28;20434;-75
2022/12/13 06:34:31;;;;;;;60.10;40.97;;;-3.20;99.90;;;;;;5114149;28;20512;-76
2022/12/13 06:37:02;;;;;;;67.93;42.13;;;-3.10;99.90;;;;;;5114398;28;20435;-75
2022/12/13 06:39:30;;;;;;;65.30;43.00;;;-3.10;99.90;;;;;;5115955;28;20861;-76
2022/12/13 06:42:01;;;;;;;72.13;43.10;;;-3.10;99.90;;;;;;5115991;28;20517;-76
2022/12/13 06:44:29;;;;;;;70.50;42.63;;;-3.10;99.90;;;;;;5114247;28;20471;-76
2022/12/13 06:46:59;;;;;;;69.30;42.43;;;-3.10;99.90;;;;;;5115982;28;20438;-75
2022/12/13 06:49:41;;;;;;;66.27;43.60;;;-3.10;99.90;;;;;;5114316;28;20443;-76
2022/12/13 06:52:11;;;;;;;60.50;39.63;;;-3.10;99.90;;;;;;5116019;28;20418;-76
2022/12/13 06:54:41;;;;;;;63.87;41.47;;;-3.10;99.90;;;;;;5113996;28;20823;-75
2022/12/13 06:57:09;;;;;;;75.37;45.60;;;-3.10;99.90;;;;;;5115299;28;20442;-76
2022/12/13 06:59:37;;;;;;;64.17;43.07;;;-3.10;99.90;;;;;;5113928;28;20478;-76
2022/12/13 07:02:07;;;;;;;71.60;43.10;;;-3.10;99.90;;;;;;5114026;28;20530;-75
2022/12/13 07:04:52;;;;;;;72.63;42.83;;;-3.00;99.90;;;;;;5115201;28;20466;-76
2022/12/13 07:07:20;;;;;;;65.40;42.60;;;-3.00;99.90;;;;;;5115090;28;20435;-75
2022/12/13 07:09:49;;;;;;;71.43;43.43;;;-3.10;99.90;;;;;;5115370;28;20500;-75
2022/12/13 07:12:18;;;;;;;61.40;38.80;;;-3.00;99.90;;;;;;5098383;28;20452;-75
2022/12/13 07:14:46;;;;;;;72.40;43.27;;;-3.10;99.90;;;;;;5093348;28;20478;-76
2022/12/13 07:17:16;;;;;;;65.27;42.83;;;-3.10;99.90;;;;;;5093419;28;20440;-76
2022/12/13 07:20:00;;;;;;;70.00;42.70;;;-3.00;99.90;;;;;;5093516;28;20455;-76
2022/12/13 07:22:28;;;;;;;72.60;43.57;;;-3.00;99.90;;;;;;5093225;28;20436;-76
2022/12/13 07:25:03;;;;;;;64.00;41.20;;;-3.00;99.90;;;;;;5094450;28;20472;-76
2022/12/13 07:27:31;;;;;;;73.30;42.30;;;-3.00;99.90;;;;;;5094402;28;20532;-76
2022/12/13 07:30:00;;;;;;;78.77;42.30;;;-3.00;99.90;;;;;;5094252;28;20803;-76
2022/12/13 07:32:29;;;;;;;60.93;40.77;;;-3.00;99.90;;;;;;5093287;28;20436;-76
2022/12/13 07:34:57;;;;;;;67.07;42.33;;;-3.00;99.90;;;;;;5094816;28;20471;-76
2022/12/13 07:37:26;;;;;;;76.00;42.73;;;-3.00;99.90;;;;;;5092963;28;20432;-76
2022/12/13 07:39:56;;;;;;;71.93;38.60;;;-3.00;99.90;;;;;;5094269;28;20459;-76
2022/12/13 07:42:30;;;;;;;65.70;41.53;;;-3.00;99.90;;;;;;5094167;28;20420;-76
2022/12/13 07:44:58;;;;;;;74.70;42.40;;;-3.00;99.90;;;;;;5093944;28;20472;-76
2022/12/13 07:47:31;;;;;;;75.30;42.40;;;-3.00;99.90;;;;;;5092662;28;20452;-76
2022/12/13 07:49:59;;;;;;;78.83;42.33;;;-3.00;99.90;;;;;;5092709;28;20439;-76
2022/12/13 07:52:28;;;;;;;59.47;40.33;;;-3.00;99.90;;;;;;5093917;28;20440;-76
2022/12/13 07:54:56;;;;;;;66.63;41.37;;;-3.10;99.90;;;;;;5093821;28;20456;-76
2022/12/13 07:57:25;;;;;;;81.73;40.37;;;-3.00;99.90;;;;;;5094192;28;20428;-76
2022/12/13 07:59:53;;;;;;;81.90;41.20;;;-3.00;99.90;;;;;;5092448;28;20459;-76
2022/12/13 08:02:21;;;;;;;71.53;43.73;;;-3.00;99.90;;;;;;5094745;28;20459;-76
2022/12/13 08:04:51;;;;;;;94.27;44.00;;;-3.00;99.90;;;;;;5092368;28;21011;-76
2022/12/13 08:07:22;;;;;;;62.53;39.87;;;-3.00;99.90;;;;;;5093638;28;20796;-76
2022/12/13 08:09:50;;;;;;;68.80;40.93;;;-3.00;99.90;;;;;;5092437;28;20448;-76
2022/12/13 08:12:20;;;;;;;79.10;43.10;;;-3.00;99.90;;;;;;5093908;28;20445;-76
2022/12/13 08:14:50;;;;;;;69.87;42.50;;;-3.00;99.90;;;;;;5092525;28;20806;-76
2022/12/13 08:17:20;;;;;;;82.47;45.23;;;-3.00;99.90;;;;;;5092374;28;20441;-76
2022/12/13 08:19:50;;;;;;;69.03;43.23;;;-3.00;99.90;;;;;;5093438;28;20497;-76
2022/12/13 08:22:19;;;;;;;75.53;42.60;;;-3.00;99.90;;;;;;5092373;28;20843;-76
2022/12/13 08:24:51;;;;;;;89.93;43.53;;;-3.00;99.90;;;;;;5093439;28;20468;-76
2022/12/13 08:27:19;;;;;;;70.03;45.60;;;-3.00;99.90;;;;;;5092230;28;20475;-76
2022/12/13 08:29:47;;;;;;;78.87;45.20;;;-3.00;99.90;;;;;;5092094;28;20965;-76
2022/12/13 08:32:16;;;;;;;76.43;45.90;;;-3.00;99.90;;;;;;5092120;28;20444;-76
2022/12/13 08:34:45;;;;;;;67.47;43.00;;;-2.90;99.90;;;;;;5093338;28;20800;-76
2022/12/13 08:37:15;;;;;;;73.77;41.80;;;-2.90;99.90;;;;;;5092173;28;20463;-76
2022/12/13 08:39:44;;;;;;;67.33;44.50;;;-2.90;99.90;;;;;;5093421;28;20440;-76
2022/12/13 08:42:14;;;;;;;77.77;44.10;;;-2.90;99.90;;;;;;5092641;28;20870;-76
2022/12/13 08:44:49;;;;;;;71.83;46.57;;;-2.80;99.90;;;;;;5093405;28;20505;-76
2022/12/13 08:47:19;;;;;;;82.20;46.13;;;-2.80;99.90;;;;;;5092026;28;20957;-76
2022/12/13 08:49:57;;;;;;;93.03;46.07;;;-2.80;99.90;;;;;;5093241;28;20419;-76
2022/12/13 08:52:32;;;;;;;70.73;42.47;;;-2.80;99.90;;;;;;5095899;28;20541;-76
2022/12/13 08:55:13;;;;;;;71.73;42.13;;;-2.80;99.90;;;;;;5091929;28;20520;-74
2022/12/13 08:57:42;;;;;;;73.40;46.83;;;-2.80;99.90;;;;;;5091899;28;20535;-74
2022/12/13 09:00:13;;;;;;;73.23;45.73;;;-2.70;99.90;;;;;;5097207;28;20440;-75
2022/12/13 09:02:41;;;;;;;78.10;46.50;;;-2.70;99.90;;;;;;5095862;28;20462;-76
2022/12/13 09:05:11;;;;;;;88.40;47.60;;;-2.70;99.90;;;;;;5095714;28;20476;-77
2022/12/13 09:07:42;;;;;;;107.40;48.67;;;-2.70;99.90;;;;;;5097958;28;20917;-76
2022/12/13 09:10:11;;;;;;;84.53;48.17;;;-2.70;99.90;;;;;;5097385;28;20428;-76
2022/12/13 09:12:56;;;;;;;78.40;46.33;;;-2.70;99.90;;;;;;5095800;28;20526;-76
2022/12/13 09:15:30;;;;;;;87.27;49.93;;;-2.70;99.90;;;;;;5095599;28;20562;-76
2022/12/13 09:18:02;;;;;;;94.67;50.90;;;-2.60;99.90;;;;;;5097128;28;20421;-76
2022/12/13 09:20:32;;;;;;;76.37;50.23;;;-2.60;99.90;;;;;;5096719;28;20459;-76
2022/12/13 09:23:10;;;;;;;97.33;51.50;;;-2.60;99.90;;;;;;5097093;28;20423;-76
2022/12/13 09:25:54;;;;;;;89.70;49.30;;;-2.60;99.90;;;;;;5095394;28;20558;-76
2022/12/13 09:28:33;;;;;;;93.47;51.23;;;-2.50;99.90;;;;;;5095420;28;20861;-76
2022/12/13 09:31:02;;;;;;;97.30;54.83;;;-2.50;99.90;;;;;;5095391;28;21018;-76
2022/12/13 09:33:30;;;;;;;105.87;54.70;;;-2.50;99.90;;;;;;5098490;28;20425;-76
2022/12/13 09:36:10;;;;;;;93.13;53.97;;;-2.40;99.90;;;;;;5096536;28;20450;-76
2022/12/13 09:38:40;;;;;;;104.47;56.80;;;-2.40;99.90;;;;;;5097076;28;20413;-76
2022/12/13 09:41:18;;;;;;;91.03;53.70;;;-2.40;99.90;;;;;;5099094;28;20497;-76
2022/12/13 09:43:50;;;;;;;93.27;55.60;;;-2.30;99.90;;;;;;5095072;28;20967;-76
2022/12/13 09:46:25;;;;;;;101.33;56.87;;;-2.30;99.90;;;;;;5096878;28;20452;-76
2022/12/13 09:49:04;;;;;;;95.37;55.33;;;-2.30;99.90;;;;;;5096460;28;20483;-76
2022/12/13 09:51:41;;;;;;;93.10;55.03;;;-2.20;99.90;;;;;;5096569;28;20428;-76
2022/12/13 09:54:22;;;;;;;93.43;56.33;;;-2.20;99.90;;;;;;5094859;28;20473;-76
2022/12/13 09:56:53;;;;;;;103.83;58.30;;;-2.10;99.90;;;;;;5094938;28;20443;-76
2022/12/13 09:59:26;;;;;;;93.70;54.60;;;-2.10;99.90;;;;;;5094706;28;20953;-76
2022/12/13 10:01:54;;;;;;;108.77;57.40;;;-2.10;99.90;;;;;;5094817;28;20510;-76
2022/12/13 10:04:23;;;;;;;105.97;58.10;;;-2.00;99.90;;;;;;5094652;28;20837;-76
2022/12/13 10:06:53;;;;;;;95.40;57.00;;;-1.70;99.90;;;;;;5094572;28;20854;-76
2022/12/13 10:09:23;;;;;;;96.30;56.53;;;-2.00;99.90;;;;;;5095491;28;20484;-76
2022/12/13 10:11:53;;;;;;;92.10;58.63;;;-2.00;99.90;;;;;;5094318;28;20451;-76
2022/12/13 10:14:26;;;;;;;89.30;58.40;;;-1.90;99.90;;;;;;5095765;28;20459;-76
2022/12/13 10:16:56;;;;;;;94.53;56.20;;;-1.90;99.90;;;;;;5096373;28;20435;-76
2022/12/13 10:19:30;;;;;;;97.47;58.60;;;-1.90;99.90;;;;;;5094560;28;20539;-76
2022/12/13 10:22:00;;;;;;;84.90;57.00;;;-1.80;99.90;;;;;;5095590;28;20436;-76
2022/12/13 10:24:48;;;;;;;92.50;59.13;;;-1.80;99.90;;;;;;5094288;28;20498;-76
2022/12/13 10:27:19;;;;;;;97.17;60.87;;;-1.80;99.90;;;;;;5096022;28;20463;-76
2022/12/13 10:29:59;;;;;;;91.93;56.90;;;-1.80;99.90;;;;;;5096067;28;20439;-76
2022/12/13 10:32:27;;;;;;;88.20;57.73;;;-1.70;99.90;;;;;;5110253;28;20451;-76
2022/12/13 10:34:58;;;;;;;88.70;57.17;;;-1.70;99.90;;;;;;5115763;27;20451;-76
2022/12/13 10:37:30;;;;;;;101.87;57.90;;;-1.70;99.90;;;;;;5114531;28;20474;-76
2022/12/13 10:40:00;;;;;;;87.43;58.73;;;-1.70;99.90;;;;;;5115708;28;20432;-76
2022/12/13 10:42:28;;;;;;;92.33;57.07;;;-1.60;99.90;;;;;;5115964;28;20857;-76
2022/12/13 10:45:15;;;;;;;83.70;57.47;;;-1.50;99.90;;;;;;5115723;28;20459;-76
2022/12/13 10:47:50;;;;;;;80.50;54.00;;;-1.50;99.90;;;;;;5114244;28;21091;-76
2022/12/13 10:50:26;;;;;;;80.93;58.10;;;-1.50;99.90;;;;;;5114168;28;20442;-76
2022/12/13 10:52:55;;;;;;;75.00;54.77;;;-1.50;99.90;;;;;;5114259;28;20489;-76
2022/12/13 10:55:30;;;;;;;80.10;56.27;;;-1.50;99.90;;;;;;5114023;28;20524;-76
2022/12/13 10:58:00;;;;;;;76.47;51.03;;;-1.40;99.90;;;;;;5114075;28;20500;-76
2022/12/13 11:00:36;;;;;;;76.40;52.23;;;-1.40;99.90;;;;;;5113926;28;20454;-76
2022/12/13 11:03:05;;;;;;;78.17;53.13;;;-1.40;99.90;;;;;;5114004;28;20450;-76
2022/12/13 11:05:34;;;;;;;70.97;51.73;;;-1.40;99.90;;;;;;5115395;28;20461;-76
2022/12/13 11:08:14;;;;;;;76.37;56.03;;;-1.40;99.90;;;;;;5114998;28;20516;-76
2022/12/13 11:10:43;;;;;;;77.93;52.93;;;-1.40;99.90;;;;;;5114945;28;20542;-76
2022/12/13 11:13:25;;;;;;;76.87;52.40;;;-1.40;99.90;;;;;;5115077;28;20834;-76
2022/12/13 11:15:56;;;;;;;68.97;53.60;;;-1.30;99.90;;;;;;5113675;28;20566;-76
2022/12/13 11:18:26;;;;;;;69.00;50.33;;;-1.30;99.90;;;;;;5114909;28;20428;-76
2022/12/13 11:20:58;;;;;;;65.00;50.63;;;-1.30;99.90;;;;;;5108064;28;20506;-76
2022/12/13 11:23:29;;;;;;;65.47;49.70;;;-1.30;99.90;;;;;;5093197;28;20945;-76
2022/12/13 11:26:04;;;;;;;66.00;50.73;;;-1.20;99.90;;;;;;5094420;28;20969;-76
2022/12/13 11:28:59;;;;;;;62.53;52.93;;;-1.20;99.90;;;;;;5094426;28;20753;-76
2022/12/13 11:31:36;;;;;;;62.33;47.93;;;-1.20;99.90;;;;;;5094326;28;20421;-77
2022/12/13 11:34:13;;;;;;;63.27;49.47;;;-1.20;99.90;;;;;;5094477;28;20468;-76
2022/12/13 11:36:48;;;;;;;66.47;50.03;;;-1.10;99.90;;;;;;5094918;28;20413;-76
2022/12/13 11:39:20;;;;;;;63.70;49.70;;;-1.10;99.90;;;;;;5092947;28;20440;-76
2022/12/13 11:41:54;;;;;;;56.07;48.20;;;-1.10;99.90;;;;;;5093230;28;20448;-77
2022/12/13 11:44:29;;;;;;;63.73;49.50;;;-1.10;99.90;;;;;;5094104;28;20460;-76
2022/12/13 11:47:00;;;;;;;61.27;47.17;;;-1.10;99.90;;;;;;5092786;28;20467;-76
2022/12/13 11:49:38;;;;;;;63.23;50.60;;;-1.00;99.90;;;;;;5094355;28;20841;-76
2022/12/13 11:52:13;;;;;;;61.20;50.10;;;-1.00;99.90;;;;;;5093967;28;20424;-76
2022/12/13 11:54:50;;;;;;;62.00;50.93;;;-1.00;99.90;;;;;;5094148;28;20818;-76
2022/12/13 11:57:29;;;;;;;63.07;49.60;;;-1.00;99.90;;;;;;5094133;28;20412;-76
2022/12/13 12:00:04;;;;;;;69.70;52.60;;;-1.00;99.90;;;;;;5092486;28;20447;-76
2022/12/13 12:02:45;;;;;;;66.00;50.13;;;-0.90;99.90;;;;;;5094230;28;20428;-76
2022/12/13 12:05:28;;;;;;;63.43;48.93;;;-0.90;99.90;;;;;;5093636;28;20547;-77
2022/12/13 12:08:04;;;;;;;60.80;49.10;;;-0.90;99.90;;;;;;5093595;28;20467;-76
2022/12/13 12:11:02;;;;;;;59.97;47.37;;;-0.90;99.90;;;;;;5096335;28;20517;-76
2022/12/13 12:13:38;;;;;;;58.83;48.03;;;-0.90;99.90;;;;;;5094411;28;20504;-77
2022/12/13 12:16:28;;;;;;;62.50;48.60;;;-0.90;99.90;;;;;;5093852;28;20428;-77
2022/12/13 12:18:57;;;;;;;65.60;51.33;;;-0.90;99.90;;;;;;5092312;28;20440;-77
2022/12/13 12:21:46;;;;;;;59.10;49.03;;;-0.80;99.90;;;;;;5092714;28;20824;-76
2022/12/13 12:24:45;;;;;;;63.13;48.50;;;-0.80;99.90;;;;;;5093585;28;20467;-77
2022/12/13 12:27:27;;;;;;;59.73;50.90;;;-0.80;99.90;;;;;;5093662;28;20470;-77
2022/12/13 12:30:11;;;;;;;63.50;50.20;;;-0.80;99.90;;;;;;5092295;28;20464;-77
2022/12/13 12:32:46;;;;;;;62.27;50.03;;;-0.70;99.90;;;;;;5091539;28;20552;-74
2022/12/13 12:35:44;;;;;;;59.40;51.13;;;-0.70;99.90;;;;;;5092025;28;20467;-74
2022/12/13 12:38:38;;;;;;;59.83;49.23;;;-0.70;99.90;;;;;;5093703;28;20809;-74
2022/12/13 12:41:24;;;;;;;65.47;49.50;;;-0.70;99.90;;;;;;5059895;28;20543;-74
2022/12/13 12:44:03;;;;;;;58.83;47.90;;;-0.70;99.90;;;;;;5091981;28;20460;-74
2022/12/13 12:46:44;;;;;;;58.80;47.67;;;-0.60;99.90;;;;;;5093564;28;20446;-74
2022/12/13 12:50:17;;;;;;;60.37;48.20;;;-0.60;99.90;;;;;;5093768;28;20770;-74
2022/12/13 12:53:06;;;;;;;57.03;47.00;;;-0.60;99.90;;;;;;5011339;28;20448;-74
2022/12/13 12:55:48;;;;;;;61.00;50.23;;;-0.60;99.90;;;;;;5091896;28;20521;-74
2022/12/13 12:58:24;;;;;;;66.13;52.67;;;-0.50;99.90;;;;;;5093514;28;20514;-74
2022/12/13 13:01:08;;;;;;;54.40;47.33;;;-0.50;99.90;;;;;;5094182;28;20483;-74